sensor_id;sensor_type;location;lat;lon;timestamp;P1;durP1;ratioP1;P2;durP2;ratioP2
75071;SDS011;63651;55.728;38.022;2023-04-03T00:02:25;6.43;;;4.28;;
75071;SDS011;63651;55.728;38.022;2023-04-03T00:07:26;6.88;;;3.70;;
75071;SDS011;63651;55.728;38.022;2023-04-03T00:12:27;4.88;;;3.55;;
75071;SDS011;63651;55.728;38.022;2023-04-03T00:17:28;6.13;;;4.35;;
75071;SDS011;63651;55.728;38.022;2023-04-03T00:22:29;4.53;;;3.70;;
75071;SDS011;63651;55.728;38.022;2023-04-03T00:27:30;5.00;;;3.33;;
75071;SDS011;63651;55.728;38.022;2023-04-03T00:32:31;5.28;;;4.10;;
75071;SDS011;63651;55.728;38.022;2023-04-03T00:37:33;6.03;;;4.35;;
75071;SDS011;63651;55.728;38.022;2023-04-03T00:42:34;5.05;;;3.58;;
75071;SDS011;63651;55.728;38.022;2023-04-03T00:47:36;5.60;;;4.00;;
75071;SDS011;63651;55.728;38.022;2023-04-03T00:52:41;6.90;;;3.83;;
75071;SDS011;63651;55.728;38.022;2023-04-03T00:57:42;5.80;;;4.10;;
75071;SDS011;63651;55.728;38.022;2023-04-03T01:02:45;6.90;;;4.15;;
75071;SDS011;63651;55.728;38.022;2023-04-03T01:07:46;5.95;;;3.85;;
75071;SDS011;63651;55.728;38.022;2023-04-03T01:12:49;6.72;;;4.15;;
75071;SDS011;63651;55.728;38.022;2023-04-03T01:17:54;5.18;;;3.80;;
75071;SDS011;63651;55.728;38.022;2023-04-03T01:23:10;6.57;;;3.50;;
75071;SDS011;63651;55.728;38.022;2023-04-03T01:28:24;5.15;;;3.80;;
75071;SDS011;63651;55.728;38.022;2023-04-03T01:33:26;6.60;;;3.80;;
75071;SDS011;63651;55.728;38.022;2023-04-03T01:38:27;4.97;;;3.35;;
75071;SDS011;63651;55.728;38.022;2023-04-03T01:43:28;7.13;;;4.40;;
75071;SDS011;63651;55.728;38.022;2023-04-03T01:48:29;5.50;;;3.90;;
75071;SDS011;63651;55.728;38.022;2023-04-03T01:53:30;6.88;;;4.60;;
75071;SDS011;63651;55.728;38.022;2023-04-03T01:58:31;6.82;;;4.28;;
75071;SDS011;63651;55.728;38.022;2023-04-03T02:03:32;7.75;;;4.10;;
75071;SDS011;63651;55.728;38.022;2023-04-03T02:08:34;9.77;;;4.50;;
75071;SDS011;63651;55.728;38.022;2023-04-03T02:13:35;7.65;;;4.70;;
75071;SDS011;63651;55.728;38.022;2023-04-03T02:18:36;6.70;;;4.35;;
75071;SDS011;63651;55.728;38.022;2023-04-03T02:23:38;8.57;;;4.95;;
75071;SDS011;63651;55.728;38.022;2023-04-03T02:28:39;7.90;;;5.00;;
75071;SDS011;63651;55.728;38.022;2023-04-03T02:33:41;8.20;;;4.55;;
75071;SDS011;63651;55.728;38.022;2023-04-03T02:38:42;6.22;;;4.75;;
75071;SDS011;63651;55.728;38.022;2023-04-03T02:43:43;6.32;;;4.57;;
75071;SDS011;63651;55.728;38.022;2023-04-03T02:48:44;7.00;;;4.07;;
75071;SDS011;63651;55.728;38.022;2023-04-03T02:53:45;7.72;;;4.60;;
75071;SDS011;63651;55.728;38.022;2023-04-03T02:58:46;8.23;;;4.45;;
75071;SDS011;63651;55.728;38.022;2023-04-03T03:03:48;6.93;;;4.20;;
75071;SDS011;63651;55.728;38.022;2023-04-03T03:08:49;7.30;;;4.07;;
75071;SDS011;63651;55.728;38.022;2023-04-03T03:13:50;5.70;;;3.88;;
75071;SDS011;63651;55.728;38.022;2023-04-03T03:18:51;8.05;;;4.22;;
75071;SDS011;63651;55.728;38.022;2023-04-03T03:23:52;5.57;;;4.07;;
75071;SDS011;63651;55.728;38.022;2023-04-03T03:28:53;5.10;;;2.72;;
75071;SDS011;63651;55.728;38.022;2023-04-03T03:33:54;4.55;;;2.20;;
75071;SDS011;63651;55.728;38.022;2023-04-03T03:38:55;4.47;;;2.40;;
75071;SDS011;63651;55.728;38.022;2023-04-03T03:43:56;5.43;;;2.70;;
75071;SDS011;63651;55.728;38.022;2023-04-03T03:48:58;5.55;;;2.05;;
75071;SDS011;63651;55.728;38.022;2023-04-03T03:53:59;4.30;;;2.72;;
75071;SDS011;63651;55.728;38.022;2023-04-03T03:59:00;6.35;;;2.80;;
75071;SDS011;63651;55.728;38.022;2023-04-03T04:04:01;5.38;;;2.47;;
75071;SDS011;63651;55.728;38.022;2023-04-03T04:09:02;4.00;;;2.70;;
75071;SDS011;63651;55.728;38.022;2023-04-03T04:14:04;3.88;;;2.40;;
75071;SDS011;63651;55.728;38.022;2023-04-03T04:19:05;5.03;;;2.53;;
75071;SDS011;63651;55.728;38.022;2023-04-03T04:24:06;8.88;;;3.08;;
75071;SDS011;63651;55.728;38.022;2023-04-03T04:29:08;4.35;;;3.33;;
75071;SDS011;63651;55.728;38.022;2023-04-03T04:34:10;9.05;;;6.20;;
75071;SDS011;63651;55.728;38.022;2023-04-03T04:39:13;10.07;;;7.07;;
75071;SDS011;63651;55.728;38.022;2023-04-03T04:44:14;13.27;;;7.97;;
75071;SDS011;63651;55.728;38.022;2023-04-03T04:49:16;15.23;;;7.70;;
75071;SDS011;63651;55.728;38.022;2023-04-03T04:54:17;17.63;;;7.97;;
75071;SDS011;63651;55.728;38.022;2023-04-03T04:59:19;16.05;;;7.25;;
75071;SDS011;63651;55.728;38.022;2023-04-03T05:04:20;13.75;;;6.88;;
75071;SDS011;63651;55.728;38.022;2023-04-03T05:09:21;12.65;;;7.10;;
75071;SDS011;63651;55.728;38.022;2023-04-03T05:14:22;11.35;;;6.28;;
75071;SDS011;63651;55.728;38.022;2023-04-03T05:19:24;11.73;;;7.07;;
75071;SDS011;63651;55.728;38.022;2023-04-03T05:24:25;15.98;;;8.68;;
75071;SDS011;63651;55.728;38.022;2023-04-03T05:29:26;17.42;;;8.30;;
75071;SDS011;63651;55.728;38.022;2023-04-03T05:34:27;16.05;;;6.90;;
75071;SDS011;63651;55.728;38.022;2023-04-03T05:39:28;8.30;;;6.07;;
75071;SDS011;63651;55.728;38.022;2023-04-03T05:44:31;11.35;;;5.90;;
75071;SDS011;63651;55.728;38.022;2023-04-03T05:49:32;7.72;;;5.65;;
75071;SDS011;63651;55.728;38.022;2023-04-03T05:54:33;10.18;;;5.60;;
75071;SDS011;63651;55.728;38.022;2023-04-03T05:59:34;10.73;;;7.28;;
75071;SDS011;63651;55.728;38.022;2023-04-03T06:04:35;10.38;;;5.97;;
75071;SDS011;63651;55.728;38.022;2023-04-03T06:09:36;11.98;;;6.07;;
75071;SDS011;63651;55.728;38.022;2023-04-03T06:14:37;9.02;;;5.35;;
75071;SDS011;63651;55.728;38.022;2023-04-03T06:19:39;8.55;;;5.28;;
75071;SDS011;63651;55.728;38.022;2023-04-03T06:24:40;8.68;;;5.50;;
75071;SDS011;63651;55.728;38.022;2023-04-03T06:29:41;7.85;;;5.60;;
75071;SDS011;63651;55.728;38.022;2023-04-03T06:34:42;8.95;;;6.00;;
75071;SDS011;63651;55.728;38.022;2023-04-03T06:39:43;8.50;;;6.03;;
75071;SDS011;63651;55.728;38.022;2023-04-03T06:44:44;7.93;;;5.10;;
75071;SDS011;63651;55.728;38.022;2023-04-03T06:49:45;8.27;;;5.78;;
75071;SDS011;63651;55.728;38.022;2023-04-03T06:54:46;9.18;;;5.97;;
75071;SDS011;63651;55.728;38.022;2023-04-03T06:59:48;7.82;;;5.50;;
75071;SDS011;63651;55.728;38.022;2023-04-03T07:04:49;8.82;;;5.60;;
75071;SDS011;63651;55.728;38.022;2023-04-03T07:09:50;7.20;;;5.30;;
75071;SDS011;63651;55.728;38.022;2023-04-03T07:14:51;6.20;;;5.30;;
75071;SDS011;63651;55.728;38.022;2023-04-03T07:19:52;9.60;;;5.32;;
75071;SDS011;63651;55.728;38.022;2023-04-03T07:24:53;8.98;;;5.30;;
75071;SDS011;63651;55.728;38.022;2023-04-03T07:29:54;8.40;;;5.28;;
75071;SDS011;63651;55.728;38.022;2023-04-03T07:34:56;7.28;;;5.47;;
75071;SDS011;63651;55.728;38.022;2023-04-03T07:39:57;9.68;;;5.53;;
75071;SDS011;63651;55.728;38.022;2023-04-03T07:44:59;6.63;;;5.40;;
75071;SDS011;63651;55.728;38.022;2023-04-03T07:50:00;6.88;;;4.18;;
75071;SDS011;63651;55.728;38.022;2023-04-03T07:55:01;6.45;;;4.43;;
75071;SDS011;63651;55.728;38.022;2023-04-03T08:00:03;8.82;;;5.18;;
75071;SDS011;63651;55.728;38.022;2023-04-03T08:05:05;9.27;;;4.97;;
75071;SDS011;63651;55.728;38.022;2023-04-03T08:10:07;8.07;;;5.45;;
75071;SDS011;63651;55.728;38.022;2023-04-03T08:15:08;7.65;;;4.93;;
75071;SDS011;63651;55.728;38.022;2023-04-03T08:20:10;6.28;;;4.72;;
75071;SDS011;63651;55.728;38.022;2023-04-03T08:25:11;5.72;;;5.00;;
75071;SDS011;63651;55.728;38.022;2023-04-03T08:30:13;7.45;;;4.80;;
75071;SDS011;63651;55.728;38.022;2023-04-03T08:35:14;6.93;;;4.88;;
75071;SDS011;63651;55.728;38.022;2023-04-03T08:40:16;6.55;;;4.85;;
75071;SDS011;63651;55.728;38.022;2023-04-03T08:45:37;5.85;;;4.00;;
75071;SDS011;63651;55.728;38.022;2023-04-03T08:50:58;7.85;;;4.15;;
75071;SDS011;63651;55.728;38.022;2023-04-03T08:56:04;5.35;;;3.72;;
75071;SDS011;63651;55.728;38.022;2023-04-03T09:01:28;4.50;;;3.50;;
75071;SDS011;63651;55.728;38.022;2023-04-03T09:06:34;4.32;;;3.40;;
75071;SDS011;63651;55.728;38.022;2023-04-03T09:11:42;5.45;;;3.72;;
75071;SDS011;63651;55.728;38.022;2023-04-03T09:21:58;3.80;;;3.13;;
75071;SDS011;63651;55.728;38.022;2023-04-03T09:27:10;5.18;;;3.67;;
75071;SDS011;63651;55.728;38.022;2023-04-03T09:32:18;6.13;;;3.47;;
75071;SDS011;63651;55.728;38.022;2023-04-03T09:38:27;7.10;;;3.95;;
75071;SDS011;63651;55.728;38.022;2023-04-03T09:43:02;6.55;;;4.03;;
75071;SDS011;63651;55.728;38.022;2023-04-03T09:48:19;5.78;;;3.78;;
75071;SDS011;63651;55.728;38.022;2023-04-03T09:53:33;5.85;;;3.67;;
75071;SDS011;63651;55.728;38.022;2023-04-03T09:58:37;5.75;;;3.58;;
75071;SDS011;63651;55.728;38.022;2023-04-03T10:03:41;5.97;;;3.60;;
75071;SDS011;63651;55.728;38.022;2023-04-03T10:08:50;6.03;;;3.47;;
75071;SDS011;63651;55.728;38.022;2023-04-03T10:14:10;5.85;;;4.07;;
75071;SDS011;63651;55.728;38.022;2023-04-03T10:46:48;5.18;;;3.35;;
75071;SDS011;63651;55.728;38.022;2023-04-03T10:51:56;6.10;;;3.65;;
75071;SDS011;63651;55.728;38.022;2023-04-03T10:57:13;5.55;;;3.90;;
75071;SDS011;63651;55.728;38.022;2023-04-03T11:07:42;7.72;;;3.95;;
75071;SDS011;63651;55.728;38.022;2023-04-03T11:12:49;6.93;;;4.35;;
75071;SDS011;63651;55.728;38.022;2023-04-03T11:17:55;4.82;;;3.53;;
75071;SDS011;63651;55.728;38.022;2023-04-03T11:23:16;5.47;;;3.05;;
75071;SDS011;63651;55.728;38.022;2023-04-03T11:28:29;5.05;;;3.60;;
75071;SDS011;63651;55.728;38.022;2023-04-03T11:33:55;5.63;;;3.10;;
75071;SDS011;63651;55.728;38.022;2023-04-03T11:38:54;4.90;;;3.58;;
75071;SDS011;63651;55.728;38.022;2023-04-03T11:44:05;5.10;;;3.22;;
75071;SDS011;63651;55.728;38.022;2023-04-03T12:05:46;4.20;;;3.15;;
75071;SDS011;63651;55.728;38.022;2023-04-03T12:47:54;7.20;;;3.15;;
75071;SDS011;63651;55.728;38.022;2023-04-03T12:52:59;4.28;;;2.72;;
75071;SDS011;63651;55.728;38.022;2023-04-03T12:58:21;4.10;;;2.92;;
75071;SDS011;63651;55.728;38.022;2023-04-03T13:03:28;4.78;;;2.97;;
75071;SDS011;63651;55.728;38.022;2023-04-03T13:08:30;3.92;;;2.78;;
75071;SDS011;63651;55.728;38.022;2023-04-03T13:13:32;3.13;;;2.80;;
75071;SDS011;63651;55.728;38.022;2023-04-03T13:18:34;3.33;;;2.60;;
75071;SDS011;63651;55.728;38.022;2023-04-03T13:23:36;4.20;;;3.05;;
75071;SDS011;63651;55.728;38.022;2023-04-03T13:28:40;3.67;;;2.47;;
75071;SDS011;63651;55.728;38.022;2023-04-03T13:33:59;4.38;;;2.35;;
75071;SDS011;63651;55.728;38.022;2023-04-03T13:54:34;4.80;;;2.55;;
75071;SDS011;63651;55.728;38.022;2023-04-03T13:59:37;3.88;;;2.80;;
75071;SDS011;63651;55.728;38.022;2023-04-03T14:09:48;5.78;;;3.42;;
75071;SDS011;63651;55.728;38.022;2023-04-03T14:14:49;4.45;;;2.92;;
75071;SDS011;63651;55.728;38.022;2023-04-03T14:19:51;4.38;;;3.05;;
75071;SDS011;63651;55.728;38.022;2023-04-03T14:24:53;5.13;;;3.35;;
75071;SDS011;63651;55.728;38.022;2023-04-03T14:29:56;5.70;;;3.60;;
75071;SDS011;63651;55.728;38.022;2023-04-03T14:34:58;5.00;;;3.90;;
75071;SDS011;63651;55.728;38.022;2023-04-03T14:40:01;5.13;;;3.83;;
75071;SDS011;63651;55.728;38.022;2023-04-03T14:45:05;5.13;;;3.92;;
75071;SDS011;63651;55.728;38.022;2023-04-03T14:50:12;7.72;;;3.45;;
75071;SDS011;63651;55.728;38.022;2023-04-03T14:55:17;9.57;;;3.85;;
75071;SDS011;63651;55.728;38.022;2023-04-03T15:00:21;6.35;;;3.60;;
75071;SDS011;63651;55.728;38.022;2023-04-03T15:05:22;5.72;;;3.88;;
75071;SDS011;63651;55.728;38.022;2023-04-03T15:10:25;5.50;;;3.63;;
75071;SDS011;63651;55.728;38.022;2023-04-03T15:15:30;5.63;;;3.88;;
75071;SDS011;63651;55.728;38.022;2023-04-03T15:20:32;5.60;;;4.10;;
75071;SDS011;63651;55.728;38.022;2023-04-03T15:25:34;7.18;;;4.40;;
75071;SDS011;63651;55.728;38.022;2023-04-03T15:30:36;8.73;;;5.18;;
75071;SDS011;63651;55.728;38.022;2023-04-03T15:35:39;9.15;;;5.43;;
75071;SDS011;63651;55.728;38.022;2023-04-03T15:40:40;8.30;;;4.30;;
75071;SDS011;63651;55.728;38.022;2023-04-03T15:45:43;5.90;;;3.97;;
75071;SDS011;63651;55.728;38.022;2023-04-03T15:50:45;5.50;;;4.10;;
75071;SDS011;63651;55.728;38.022;2023-04-03T15:55:46;8.48;;;3.65;;
75071;SDS011;63651;55.728;38.022;2023-04-03T16:00:47;5.80;;;3.53;;
75071;SDS011;63651;55.728;38.022;2023-04-03T16:05:48;6.13;;;3.60;;
75071;SDS011;63651;55.728;38.022;2023-04-03T16:10:50;7.07;;;3.70;;
75071;SDS011;63651;55.728;38.022;2023-04-03T16:15:51;5.85;;;3.85;;
75071;SDS011;63651;55.728;38.022;2023-04-03T16:20:52;6.80;;;4.03;;
75071;SDS011;63651;55.728;38.022;2023-04-03T16:25:53;4.68;;;3.60;;
75071;SDS011;63651;55.728;38.022;2023-04-03T16:30:54;5.47;;;4.20;;
75071;SDS011;63651;55.728;38.022;2023-04-03T16:35:55;6.10;;;4.43;;
75071;SDS011;63651;55.728;38.022;2023-04-03T16:40:56;6.63;;;4.55;;
75071;SDS011;63651;55.728;38.022;2023-04-03T16:45:59;7.13;;;4.30;;
75071;SDS011;63651;55.728;38.022;2023-04-03T16:51:02;7.13;;;4.47;;
75071;SDS011;63651;55.728;38.022;2023-04-03T16:56:03;6.38;;;4.90;;
75071;SDS011;63651;55.728;38.022;2023-04-03T17:01:08;8.43;;;5.35;;
75071;SDS011;63651;55.728;38.022;2023-04-03T17:06:11;7.78;;;4.68;;
75071;SDS011;63651;55.728;38.022;2023-04-03T17:11:17;5.53;;;4.07;;
75071;SDS011;63651;55.728;38.022;2023-04-03T17:16:18;8.75;;;4.90;;
75071;SDS011;63651;55.728;38.022;2023-04-03T17:21:19;8.80;;;5.15;;
75071;SDS011;63651;55.728;38.022;2023-04-03T17:26:21;5.57;;;4.22;;
75071;SDS011;63651;55.728;38.022;2023-04-03T17:31:22;5.15;;;4.32;;
75071;SDS011;63651;55.728;38.022;2023-04-03T17:36:23;5.57;;;4.15;;
75071;SDS011;63651;55.728;38.022;2023-04-03T17:41:27;6.97;;;4.18;;
75071;SDS011;63651;55.728;38.022;2023-04-03T17:46:28;6.78;;;3.88;;
75071;SDS011;63651;55.728;38.022;2023-04-03T17:51:30;6.05;;;4.10;;
75071;SDS011;63651;55.728;38.022;2023-04-03T17:56:33;8.27;;;4.70;;
75071;SDS011;63651;55.728;38.022;2023-04-03T18:01:35;6.55;;;4.88;;
75071;SDS011;63651;55.728;38.022;2023-04-03T18:06:40;5.45;;;3.85;;
75071;SDS011;63651;55.728;38.022;2023-04-03T18:11:44;7.88;;;4.05;;
75071;SDS011;63651;55.728;38.022;2023-04-03T18:16:47;6.43;;;4.10;;
75071;SDS011;63651;55.728;38.022;2023-04-03T18:21:48;6.55;;;4.95;;
75071;SDS011;63651;55.728;38.022;2023-04-03T18:26:56;8.00;;;5.00;;
75071;SDS011;63651;55.728;38.022;2023-04-03T18:32:00;7.93;;;4.70;;
75071;SDS011;63651;55.728;38.022;2023-04-03T18:37:05;5.53;;;4.47;;
75071;SDS011;63651;55.728;38.022;2023-04-03T18:42:08;7.45;;;6.03;;
75071;SDS011;63651;55.728;38.022;2023-04-03T18:47:15;10.20;;;6.20;;
75071;SDS011;63651;55.728;38.022;2023-04-03T18:52:16;8.45;;;5.80;;
75071;SDS011;63651;55.728;38.022;2023-04-03T18:57:17;7.10;;;5.57;;
75071;SDS011;63651;55.728;38.022;2023-04-03T19:02:19;9.18;;;4.90;;
75071;SDS011;63651;55.728;38.022;2023-04-03T19:07:23;6.53;;;4.60;;
75071;SDS011;63651;55.728;38.022;2023-04-03T19:12:25;8.10;;;5.13;;
75071;SDS011;63651;55.728;38.022;2023-04-03T19:17:26;10.43;;;5.60;;
75071;SDS011;63651;55.728;38.022;2023-04-03T19:22:28;6.53;;;4.93;;
75071;SDS011;63651;55.728;38.022;2023-04-03T19:27:30;6.07;;;4.90;;
75071;SDS011;63651;55.728;38.022;2023-04-03T19:32:31;7.28;;;5.00;;
75071;SDS011;63651;55.728;38.022;2023-04-03T19:37:33;7.10;;;5.10;;
75071;SDS011;63651;55.728;38.022;2023-04-03T19:42:34;8.60;;;5.70;;
75071;SDS011;63651;55.728;38.022;2023-04-03T19:47:41;7.25;;;5.05;;
75071;SDS011;63651;55.728;38.022;2023-04-03T19:52:42;6.78;;;5.45;;
75071;SDS011;63651;55.728;38.022;2023-04-03T19:57:43;6.47;;;4.93;;
75071;SDS011;63651;55.728;38.022;2023-04-03T20:02:44;7.72;;;5.47;;
75071;SDS011;63651;55.728;38.022;2023-04-03T20:07:45;5.63;;;4.68;;
75071;SDS011;63651;55.728;38.022;2023-04-03T20:12:47;6.05;;;4.70;;
75071;SDS011;63651;55.728;38.022;2023-04-03T20:17:49;5.32;;;4.43;;
75071;SDS011;63651;55.728;38.022;2023-04-03T20:22:50;7.05;;;4.72;;
75071;SDS011;63651;55.728;38.022;2023-04-03T20:27:53;5.82;;;4.80;;
75071;SDS011;63651;55.728;38.022;2023-04-03T20:32:54;6.25;;;4.50;;
75071;SDS011;63651;55.728;38.022;2023-04-03T20:37:55;4.30;;;3.90;;
75071;SDS011;63651;55.728;38.022;2023-04-03T20:42:57;6.55;;;4.13;;
75071;SDS011;63651;55.728;38.022;2023-04-03T20:47:58;5.50;;;4.25;;
75071;SDS011;63651;55.728;38.022;2023-04-03T20:53:00;8.40;;;4.93;;
75071;SDS011;63651;55.728;38.022;2023-04-03T20:58:02;5.90;;;3.97;;
75071;SDS011;63651;55.728;38.022;2023-04-03T21:03:03;6.75;;;4.18;;
75071;SDS011;63651;55.728;38.022;2023-04-03T21:19:27;6.80;;;4.10;;
75071;SDS011;63651;55.728;38.022;2023-04-03T21:24:29;6.13;;;4.22;;
75071;SDS011;63651;55.728;38.022;2023-04-03T21:29:31;6.35;;;4.38;;
75071;SDS011;63651;55.728;38.022;2023-04-03T21:34:32;5.55;;;4.55;;
75071;SDS011;63651;55.728;38.022;2023-04-03T21:39:33;7.43;;;4.55;;
75071;SDS011;63651;55.728;38.022;2023-04-03T21:44:34;5.57;;;3.97;;
75071;SDS011;63651;55.728;38.022;2023-04-03T21:49:35;6.50;;;4.65;;
75071;SDS011;63651;55.728;38.022;2023-04-03T21:54:36;6.65;;;4.93;;
75071;SDS011;63651;55.728;38.022;2023-04-03T21:59:37;6.10;;;4.20;;
75071;SDS011;63651;55.728;38.022;2023-04-03T22:04:38;6.82;;;4.53;;
75071;SDS011;63651;55.728;38.022;2023-04-03T22:09:39;5.68;;;4.60;;
75071;SDS011;63651;55.728;38.022;2023-04-03T22:14:40;6.85;;;4.82;;
75071;SDS011;63651;55.728;38.022;2023-04-03T22:19:41;10.35;;;5.20;;
75071;SDS011;63651;55.728;38.022;2023-04-03T22:24:42;5.97;;;5.07;;
75071;SDS011;63651;55.728;38.022;2023-04-03T22:29:44;7.47;;;5.95;;
75071;SDS011;63651;55.728;38.022;2023-04-03T22:34:45;8.20;;;4.93;;
75071;SDS011;63651;55.728;38.022;2023-04-03T22:39:46;7.60;;;5.05;;
75071;SDS011;63651;55.728;38.022;2023-04-03T22:44:47;7.65;;;5.15;;
75071;SDS011;63651;55.728;38.022;2023-04-03T22:49:48;7.35;;;5.13;;
75071;SDS011;63651;55.728;38.022;2023-04-03T22:54:49;6.85;;;4.88;;
75071;SDS011;63651;55.728;38.022;2023-04-03T22:59:50;5.80;;;4.75;;
75071;SDS011;63651;55.728;38.022;2023-04-03T23:04:51;6.35;;;4.63;;
75071;SDS011;63651;55.728;38.022;2023-04-03T23:09:53;5.88;;;4.50;;
75071;SDS011;63651;55.728;38.022;2023-04-03T23:14:54;6.70;;;4.95;;
75071;SDS011;63651;55.728;38.022;2023-04-03T23:19:55;7.30;;;4.60;;
75071;SDS011;63651;55.728;38.022;2023-04-03T23:24:56;7.22;;;4.57;;
75071;SDS011;63651;55.728;38.022;2023-04-03T23:29:57;5.72;;;4.43;;
75071;SDS011;63651;55.728;38.022;2023-04-03T23:34:58;5.78;;;4.93;;
75071;SDS011;63651;55.728;38.022;2023-04-03T23:39:59;6.65;;;4.85;;
75071;SDS011;63651;55.728;38.022;2023-04-03T23:45:01;8.52;;;5.68;;
75071;SDS011;63651;55.728;38.022;2023-04-03T23:50:02;6.95;;;5.10;;
75071;SDS011;63651;55.728;38.022;2023-04-03T23:55:04;6.72;;;5.13;;
